Impacts TAF Board
For situational awareness. Not to be used for flight planning purposes.
IDs:

KSFO - San Francisco Intl, CA, US

Issued at 2053 UTC 19 Jan 2019
Updated at 2253 UTC 19 Jan 2019
Potential Impact None Slight Moderate High
Time<<20/11Z 20/12Z 20/13Z 20/14Z 20/15Z 20/16Z 20/17Z 20/18Z 20/19Z 20/20Z 20/21Z 20/22Z 20/23Z>>
Type PRVL PRVL PRVL PRVL PRVL PRVL PRVL PRVL PRVL PRVL PRVL PRVL PRVL
VIS >6 >6 >6 >6 >6 >6 >6 >6 >6 >6 6 6 6
CIG 25 25 25 25 25 25 25 25 25 25 20 20 20
Cover OVC OVC OVC OVC OVC OVC OVC OVC OVC OVC OVC OVC OVC
FltCat MVFR MVFR MVFR MVFR MVFR MVFR MVFR MVFR MVFR MVFR MVFR MVFR MVFR
WX VCSH VCSH VCSH VCSH VCSH VCSH VCSH VCSH VCSH VCSH -SHRA BR -SHRA BR -SHRA BR
WDir 220 220 220 220 220 220 220 220 220 220 270 270 270
WSpd 7 7 7 7 7 7 7 7 7 7 15 15 15
WGst -- -- -- -- -- -- -- -- -- -- -- -- --
Raw TAF
KSFO 192053Z 1921/2024 01005KT P6SM FEW035 BKN200
  FM200000 07005KT P6SM FEW040 BKN200
  FM200200 28005KT P6SM SCT040 BKN050 BKN100
  FM200800 21005KT P6SM FEW015 OVC040
  FM201100 22007KT P6SM VCSH SCT015 OVC025
  FM202100 27015KT 6SM -SHRA BR SCT015 OVC020


METAR Board
Radar Display
Forecast Discussion
For situational awareness. Not to be used for flight planning purposes.